Time;durP1;ratioP1;P1;durP2;ratioP2;P2;SDS_P1;SDS_P2;PMS_P1;PMS_P2;Temp;Humidity;BMP_temperature;BMP_pressure;BME280_temperature;BME280_humidity;BME280_pressure;Samples;Min_cycle;Max_cycle;Signal;HPM_P1;HPM_P2
2022/10/06 00:01:11;;;;;;;4.38;3.75;;;;;;;;;;5048152;28;20305;-74
2022/10/06 00:03:38;;;;;;;5.32;4.15;;;;;;;;;;5030131;28;20091;-74
2022/10/06 00:06:06;;;;;;;5.18;4.20;;;;;;;;;;5029494;28;20048;-74
2022/10/06 00:08:35;;;;;;;8.88;4.68;;;;;;;;;;5048106;28;20128;-74
2022/10/06 00:11:03;;;;;;;8.43;4.90;;;;;;;;;;5048253;28;20564;-75
2022/10/06 00:13:31;;;;;;;6.82;4.47;;;;;;;;;;5030384;28;20487;-74
2022/10/06 00:15:59;;;;;;;5.80;5.20;;;;;;;;;;5029815;28;20076;-75
2022/10/06 00:18:27;;;;;;;8.77;5.60;;;;;;;;;;5048038;28;20418;-74
2022/10/06 00:20:55;;;;;;;9.43;5.28;;;;;;;;;;5047671;28;20124;-74
2022/10/06 00:23:22;;;;;;;10.68;5.80;;;;;;;;;;5030483;28;20045;-74
2022/10/06 00:25:50;;;;;;;6.15;5.47;;;;;;;;;;5047602;28;20160;-74
2022/10/06 00:28:17;;;;;;;11.13;5.78;;;;;;;;;;5048152;28;20053;-74
2022/10/06 00:30:45;;;;;;;8.90;5.28;;;;;;;;;;5030176;28;20044;-75
2022/10/06 00:33:14;;;;;;;6.93;5.97;;;;;;;;;;5048124;28;20049;-74
2022/10/06 00:35:42;;;;;;;8.98;5.65;;;;;;;;;;5030082;28;20554;-74
2022/10/06 00:38:13;;;;;;;10.75;6.18;;;;;;;;;;5047718;28;20041;-74
2022/10/06 00:40:45;;;;;;;11.57;5.85;;;;;;;;;;5030021;28;20137;-74
2022/10/06 00:43:31;;;;;;;7.07;6.07;;;;;;;;;;5030254;28;20037;-75
2022/10/06 00:45:59;;;;;;;7.13;6.22;;;;;;;;;;5029708;28;20104;-74
2022/10/06 00:48:26;;;;;;;10.35;5.97;;;;;;;;;;5030205;28;20049;-74
2022/10/06 00:50:56;;;;;;;8.38;5.80;;;;;;;;;;5030619;28;20049;-75
2022/10/06 00:53:25;;;;;;;9.05;5.20;;;;;;;;;;5029756;28;20142;-74
2022/10/06 00:55:53;;;;;;;17.92;5.28;;;;;;;;;;5047220;28;20052;-74
2022/10/06 00:58:21;;;;;;;6.20;4.68;;;;;;;;;;5029859;28;20094;-74
2022/10/06 01:00:52;;;;;;;7.50;5.38;;;;;;;;;;5029940;28;20410;-74
2022/10/06 01:03:20;;;;;;;;;;;;;;;;;;5031827;28;20102;-75
2022/10/06 01:05:49;;;;;;;8.25;4.22;;;;;;;;;;5032919;28;19990;-74
2022/10/06 01:08:18;;;;;;;13.40;4.97;;;;;;;;;;5033271;28;20078;-74
2022/10/06 01:10:45;;;;;;;9.48;5.20;;;;;;;;;;5051420;28;20072;-74
2022/10/06 01:13:13;;;;;;;12.48;5.07;;;;;;;;;;5033504;28;20045;-75
2022/10/06 01:15:45;;;;;;;11.13;5.03;;;;;;;;;;5032755;28;20554;-74
2022/10/06 01:18:14;;;;;;;15.98;4.40;;;;;;;;;;5033200;28;20230;-74
2022/10/06 01:20:48;;;;;;;10.32;5.25;;;;;;;;;;5033388;28;20041;-74
2022/10/06 01:23:16;;;;;;;15.07;5.93;;;;;;;;;;5040406;28;20062;-74
2022/10/06 01:25:43;;;;;;;8.80;5.72;;;;;;;;;;5052614;28;20474;-74
2022/10/06 01:28:11;;;;;;;6.43;5.20;;;;;;;;;;5071195;28;20047;-74
2022/10/06 01:30:42;;;;;;;8.43;5.65;;;;;;;;;;5053277;28;20115;-74
2022/10/06 01:33:10;;;;;;;38.47;5.77;;;;;;;;;;5053282;28;20470;-74
2022/10/06 01:35:37;;;;;;;6.82;5.78;;;;;;;;;;5053086;28;20378;-74
2022/10/06 01:38:06;;;;;;;12.18;5.60;;;;;;;;;;5033590;28;20051;-74
2022/10/06 01:40:34;;;;;;;8.00;6.10;;;;;;;;;;5032496;28;20072;-74
2022/10/06 01:43:02;;;;;;;12.98;6.13;;;;;;;;;;5050390;28;20740;-74
2022/10/06 01:45:29;;;;;;;13.50;5.60;;;;;;;;;;4999941;28;20057;-74
2022/10/06 01:47:57;;;;;;;7.90;5.10;;;;;;;;;;5032546;28;20126;-74
2022/10/06 01:50:24;;;;;;;16.10;5.70;;;;;;;;;;5016442;28;20539;-74
2022/10/06 01:52:52;;;;;;;10.05;5.20;;;;;;;;;;5015822;28;20048;-74
2022/10/06 01:55:19;;;;;;;13.80;4.97;;;;;;;;;;5015665;28;20068;-74
2022/10/06 01:57:47;;;;;;;13.80;5.20;;;;;;;;;;5032218;28;20037;-74
2022/10/06 02:00:16;;;;;;;7.65;4.80;;;;;;;;;;5032427;28;20132;-74
2022/10/06 02:02:43;;;;;;;15.65;5.32;;;;;;;;;;5032309;28;20048;-74
2022/10/06 02:05:11;;;;;;;7.15;5.30;;;;;;;;;;5031504;28;20103;-75
2022/10/06 02:07:42;;;;;;;11.50;5.33;;;;;;;;;;5006760;28;20051;-74
2022/10/06 02:10:13;;;;;;;11.85;4.93;;;;;;;;;;5049055;28;20051;-74
2022/10/06 02:12:41;;;;;;;14.85;5.43;;;;;;;;;;5054169;28;20049;-74
2022/10/06 02:15:09;;;;;;;15.18;4.57;;;;;;;;;;5031492;28;20080;-74
2022/10/06 02:17:37;;;;;;;8.88;4.85;;;;;;;;;;5032845;28;20052;-74
2022/10/06 02:20:05;;;;;;;14.25;4.85;;;;;;;;;;5032953;28;20505;-75
2022/10/06 02:22:36;;;;;;;5.07;4.32;;;;;;;;;;5016619;28;20518;-74
2022/10/06 02:25:04;;;;;;;8.70;4.38;;;;;;;;;;5050237;28;20048;-74
2022/10/06 02:27:31;;;;;;;6.32;4.88;;;;;;;;;;5015851;28;20045;-74
2022/10/06 02:29:58;;;;;;;8.30;4.78;;;;;;;;;;5048348;28;20053;-74
2022/10/06 02:32:34;;;;;;;5.57;4.97;;;;;;;;;;5031987;28;20040;-74
2022/10/06 02:35:02;;;;;;;8.40;4.72;;;;;;;;;;5015211;28;20465;-74
2022/10/06 02:37:30;;;;;;;5.60;4.50;;;;;;;;;;5031917;28;20041;-74
2022/10/06 02:39:58;;;;;;;8.80;4.63;;;;;;;;;;5015442;28;20052;-75
2022/10/06 02:42:26;;;;;;;6.53;4.95;;;;;;;;;;5031575;28;20041;-74
2022/10/06 02:44:53;;;;;;;11.15;4.45;;;;;;;;;;5030812;28;20091;-74
2022/10/06 02:47:21;;;;;;;6.13;4.88;;;;;;;;;;5027777;28;20467;-75
2022/10/06 02:49:49;;;;;;;8.20;4.72;;;;;;;;;;5031516;28;20060;-74
2022/10/06 02:52:16;;;;;;;6.93;4.38;;;;;;;;;;5031410;28;20045;-74
2022/10/06 02:54:44;;;;;;;8.93;4.88;;;;;;;;;;5030918;28;20521;-75
2022/10/06 02:57:13;;;;;;;12.95;4.93;;;;;;;;;;5031184;28;20064;-74
2022/10/06 02:59:41;;;;;;;6.35;4.90;;;;;;;;;;5049034;28;20110;-75
2022/10/06 03:02:09;;;;;;;11.10;5.18;;;;;;;;;;5029428;28;20542;-74
2022/10/06 03:04:36;;;;;;;6.05;5.07;;;;;;;;;;5057467;28;20230;-74
2022/10/06 03:07:04;;;;;;;10.10;4.90;;;;;;;;;;5030638;28;20045;-74
2022/10/06 03:09:35;;;;;;;9.67;4.93;;;;;;;;;;5032012;28;20052;-74
2022/10/06 03:12:03;;;;;;;7.28;4.60;;;;;;;;;;5031046;28;20279;-74
2022/10/06 03:14:35;;;;;;;15.90;4.82;;;;;;;;;;5030515;28;20176;-74
2022/10/06 03:17:04;;;;;;;8.20;4.90;;;;;;;;;;5030791;28;20060;-74
2022/10/06 03:19:31;;;;;;;9.85;5.53;;;;;;;;;;5048884;28;20045;-74
2022/10/06 03:21:59;;;;;;;8.75;5.40;;;;;;;;;;5031190;28;20041;-75
2022/10/06 03:24:37;;;;;;;14.10;5.10;;;;;;;;;;5030376;28;20041;-74
2022/10/06 03:27:05;;;;;;;6.00;4.35;;;;;;;;;;5013480;28;20476;-74
2022/10/06 03:29:32;;;;;;;14.70;4.82;;;;;;;;;;5030822;28;20072;-74
2022/10/06 03:32:00;;;;;;;8.93;5.32;;;;;;;;;;5030546;28;20075;-74
2022/10/06 03:34:28;;;;;;;9.18;4.97;;;;;;;;;;5030466;28;20044;-74
2022/10/06 03:36:56;;;;;;;6.65;5.90;;;;;;;;;;5036924;28;20123;-74
2022/10/06 03:39:26;;;;;;;12.55;5.78;;;;;;;;;;5050688;28;20040;-74
2022/10/06 03:41:53;;;;;;;20.00;5.45;;;;;;;;;;5066731;28;20052;-73
2022/10/06 03:44:21;;;;;;;21.77;6.03;;;;;;;;;;5014352;28;20048;-74
2022/10/06 03:46:49;;;;;;;13.20;5.18;;;;;;;;;;5031867;28;20041;-75
2022/10/06 03:49:17;;;;;;;9.52;5.10;;;;;;;;;;5039232;28;20052;-75
2022/10/06 03:51:45;;;;;;;10.52;5.65;;;;;;;;;;5056080;28;20499;-74
2022/10/06 03:54:18;;;;;;;11.23;5.50;;;;;;;;;;5055669;28;20052;-74
2022/10/06 03:56:48;;;;;;;9.80;5.05;;;;;;;;;;5033336;28;20041;-75
2022/10/06 03:59:16;;;;;;;13.52;5.10;;;;;;;;;;5056636;28;20406;-74
2022/10/06 04:01:46;;;;;;;9.98;5.68;;;;;;;;;;5038043;28;20049;-74
2022/10/06 04:04:22;;;;;;;10.02;5.40;;;;;;;;;;5045327;28;20073;-74
2022/10/06 04:06:53;;;;;;;19.40;6.05;;;;;;;;;;5026260;28;20048;-74
2022/10/06 04:09:23;;;;;;;11.82;5.70;;;;;;;;;;5048248;28;20128;-74
2022/10/06 04:11:51;;;;;;;14.45;5.18;;;;;;;;;;5030197;28;20068;-74
2022/10/06 04:14:19;;;;;;;14.23;4.15;;;;;;;;;;5030414;28;20119;-74
2022/10/06 04:16:48;;;;;;;11.63;5.57;;;;;;;;;;5049780;28;20052;-74
2022/10/06 04:19:20;;;;;;;8.27;5.60;;;;;;;;;;5049502;28;20045;-74
2022/10/06 04:21:50;;;;;;;24.23;5.40;;;;;;;;;;5033896;28;20516;-74
2022/10/06 04:24:23;;;;;;;15.20;6.20;;;;;;;;;;5049486;28;20071;-74
2022/10/06 04:26:51;;;;;;;18.45;5.20;;;;;;;;;;5049427;28;20413;-75
2022/10/06 04:29:19;;;;;;;11.40;5.78;;;;;;;;;;5029966;28;20143;-74
2022/10/06 04:31:51;;;;;;;;;;;;;;;;;;5032577;28;20148;-74
2022/10/06 04:34:25;;;;;;;20.00;5.15;;;;;;;;;;5038561;28;20293;-74
2022/10/06 04:36:53;;;;;;;14.15;6.70;;;;;;;;;;5029016;28;20044;-75
2022/10/06 04:39:20;;;;;;;35.72;5.65;;;;;;;;;;5033022;28;20497;-74
2022/10/06 04:41:48;;;;;;;6.10;4.80;;;;;;;;;;5047271;28;20041;-74
2022/10/06 04:44:23;;;;;;;36.75;5.20;;;;;;;;;;5034834;28;20094;-74
2022/10/06 04:46:52;;;;;;;24.40;5.50;;;;;;;;;;5037237;28;20538;-75
2022/10/06 04:49:20;;;;;;;23.15;5.45;;;;;;;;;;5033116;28;20067;-74
2022/10/06 04:51:50;;;;;;;9.95;5.03;;;;;;;;;;5048477;28;20049;-80
2022/10/06 04:54:18;;;;;;;11.00;5.22;;;;;;;;;;5035514;28;20044;-74
2022/10/06 04:56:49;;;;;;;10.85;4.45;;;;;;;;;;5033260;28;20045;-74
2022/10/06 04:59:18;;;;;;;19.75;4.28;;;;;;;;;;5032164;28;20398;-75
2022/10/06 05:01:47;;;;;;;37.10;5.10;;;;;;;;;;5010204;28;20045;-75
2022/10/06 05:04:14;;;;;;;13.98;5.10;;;;;;;;;;5032970;28;20641;-74
2022/10/06 05:06:42;;;;;;;18.05;5.43;;;;;;;;;;5033076;28;20124;-74
2022/10/06 05:09:14;;;;;;;6.10;5.50;;;;;;;;;;5032084;28;20041;-75
2022/10/06 05:11:50;;;;;;;24.08;4.93;;;;;;;;;;5047781;28;20574;-75
2022/10/06 05:14:20;;;;;;;11.95;5.65;;;;;;;;;;5035939;28;20048;-74
2022/10/06 05:16:48;;;;;;;8.35;5.22;;;;;;;;;;5021854;28;20047;-77
2022/10/06 05:19:16;;;;;;;14.45;4.82;;;;;;;;;;5033457;28;20036;-77
2022/10/06 05:21:43;;;;;;;19.50;4.60;;;;;;;;;;5033148;28;20407;-77
2022/10/06 05:24:16;;;;;;;;;;;;;;;;;;5033459;28;20119;-86
2022/10/06 05:26:45;;;;;;;16.05;4.40;;;;;;;;;;5016747;28;20349;-76
2022/10/06 05:29:15;;;;;;;18.90;4.75;;;;;;;;;;5033060;28;20119;-77
2022/10/06 05:31:44;;;;;;;16.05;4.78;;;;;;;;;;5032564;28;20049;-76
2022/10/06 05:34:13;;;;;;;4.53;4.13;;;;;;;;;;5035263;28;20037;-77
2022/10/06 05:36:40;;;;;;;14.90;4.55;;;;;;;;;;5044155;28;20040;-76
2022/10/06 05:39:10;;;;;;;9.50;4.70;;;;;;;;;;5033014;28;20087;-76
2022/10/06 05:41:45;;;;;;;4.15;3.85;;;;;;;;;;5023023;28;20052;-76
2022/10/06 05:44:13;;;;;;;8.23;7.00;;;;;;;;;;5017609;28;20392;-76
2022/10/06 05:46:42;;;;;;;9.27;4.85;;;;;;;;;;5030744;28;20564;-76
2022/10/06 05:49:11;;;;;;;4.82;4.32;;;;;;;;;;5035571;28;20092;-76
2022/10/06 05:51:47;;;;;;;10.55;5.38;;;;;;;;;;5044848;28;20041;-76
2022/10/06 05:54:19;;;;;;;13.13;4.05;;;;;;;;;;5026949;28;20045;-76
2022/10/06 05:56:47;;;;;;;7.45;4.78;;;;;;;;;;5031216;28;20380;-76
2022/10/06 05:59:15;;;;;;;5.10;4.60;;;;;;;;;;5027322;28;20870;-79
2022/10/06 06:01:43;;;;;;;5.07;4.57;;;;;;;;;;5026224;28;20040;-77
2022/10/06 06:04:31;;;;;;;8.73;4.57;;;;;;;;;;5019780;28;20051;-86
2022/10/06 06:06:59;;;;;;;;;;;;;;;;;;5032814;28;20094;-76
2022/10/06 06:09:28;;;;;;;8.65;4.07;;;;;;;;;;5000713;28;19972;-77
2022/10/06 06:11:58;;;;;;;6.82;4.10;;;;;;;;;;5030318;28;20057;-77
2022/10/06 06:17:30;;;;;;;10.85;4.43;;;;;;;;;;5025310;28;20049;-77
2022/10/06 06:19:57;;;;;;;9.82;4.82;;;;;;;;;;5027490;28;20041;-76
2022/10/06 06:22:25;;;;;;;7.47;4.20;;;;;;;;;;5016536;28;20423;-77
2022/10/06 06:24:52;;;;;;;10.35;4.72;;;;;;;;;;5033211;28;20426;-76
2022/10/06 06:27:20;;;;;;;24.40;5.53;;;;;;;;;;5031778;28;20501;-77
2022/10/06 06:29:47;;;;;;;23.73;5.35;;;;;;;;;;5031891;28;20110;-77
2022/10/06 06:32:15;;;;;;;9.25;5.18;;;;;;;;;;5032120;28;20053;-77
2022/10/06 06:34:42;;;;;;;13.70;5.43;;;;;;;;;;5031722;28;20045;-76
2022/10/06 06:37:10;;;;;;;12.02;5.68;;;;;;;;;;5049566;28;20513;-77
2022/10/06 06:39:41;;;;;;;14.93;6.63;;;;;;;;;;5031926;28;20048;-78
2022/10/06 06:42:09;;;;;;;7.93;5.32;;;;;;;;;;5031549;28;20625;-77
2022/10/06 06:44:39;;;;;;;6.75;5.15;;;;;;;;;;5049092;28;20115;-77
2022/10/06 06:47:22;;;;;;;13.23;4.80;;;;;;;;;;5025726;28;20046;-82
2022/10/06 06:49:53;;;;;;;9.37;4.10;;;;;;;;;;5012154;28;20045;-77
2022/10/06 06:52:24;;;;;;;5.40;4.90;;;;;;;;;;5023738;28;20657;-77
2022/10/06 06:54:52;;;;;;;7.25;5.22;;;;;;;;;;5030542;28;20053;-77
2022/10/06 06:57:19;;;;;;;19.20;4.50;;;;;;;;;;5011781;28;20127;-78
2022/10/06 06:59:49;;;;;;;6.85;5.32;;;;;;;;;;5011775;28;20137;-77
2022/10/06 07:02:17;;;;;;;7.53;4.70;;;;;;;;;;4979116;28;20049;-77
2022/10/06 07:04:46;;;;;;;11.13;4.80;;;;;;;;;;5014951;28;20048;-76
2022/10/06 07:07:16;;;;;;;8.15;5.22;;;;;;;;;;5030525;28;20059;-77
2022/10/06 07:09:43;;;;;;;11.48;5.72;;;;;;;;;;5031084;28;20063;-77
2022/10/06 07:12:12;;;;;;;7.13;5.43;;;;;;;;;;5030956;28;20056;-77
2022/10/06 07:26:01;;;;;;;5.20;4.72;;;;;;;;;;5030869;28;20884;-77
2022/10/06 07:28:29;;;;;;;8.05;5.22;;;;;;;;;;5031060;28;20087;-77
2022/10/06 07:30:59;;;;;;;4.70;4.30;;;;;;;;;;5014312;28;20579;-77
2022/10/06 07:33:31;;;;;;;5.60;4.68;;;;;;;;;;5030775;28;20037;-77
2022/10/06 07:36:00;;;;;;;4.88;4.35;;;;;;;;;;5030688;28;20056;-78
2022/10/06 07:38:29;;;;;;;4.65;3.83;;;;;;;;;;5013649;28;20374;-77
2022/10/06 07:40:57;;;;;;;3.90;3.60;;;;;;;;;;5030708;28;20048;-77
2022/10/06 07:43:48;;;;;;;3.92;3.63;;;;;;;;;;5040273;28;20041;-77
2022/10/06 07:46:17;;;;;;;6.05;3.80;;;;;;;;;;5043964;28;20033;-76
2022/10/06 07:48:52;;;;;;;4.05;3.75;;;;;;;;;;5020107;28;20054;-78
2022/10/06 07:51:23;;;;;;;9.13;4.45;;;;;;;;;;5013178;28;20053;-77
2022/10/06 07:53:52;;;;;;;4.97;4.47;;;;;;;;;;5023081;28;20045;-78
2022/10/06 07:56:25;;;;;;;4.45;4.05;;;;;;;;;;5010301;28;20065;-77
2022/10/06 07:58:57;;;;;;;4.03;3.72;;;;;;;;;;5031509;28;20117;-78
2022/10/06 08:01:26;;;;;;;4.00;3.70;;;;;;;;;;5066237;28;20041;-78
2022/10/06 08:03:53;;;;;;;5.80;3.85;;;;;;;;;;5050455;28;20513;-77
2022/10/06 08:06:22;;;;;;;3.92;3.65;;;;;;;;;;5068504;28;20047;-77
2022/10/06 08:08:51;;;;;;;3.92;3.63;;;;;;;;;;5050512;28;20049;-83
2022/10/06 08:11:21;;;;;;;4.20;3.90;;;;;;;;;;5068467;28;20052;-77
2022/10/06 08:13:50;;;;;;;4.25;3.95;;;;;;;;;;5070239;28;20573;-76
2022/10/06 08:16:19;;;;;;;4.55;4.25;;;;;;;;;;5072270;28;20044;-77
2022/10/06 08:18:53;;;;;;;4.13;3.75;;;;;;;;;;5072081;28;20127;-77
2022/10/06 08:21:21;;;;;;;5.97;4.00;;;;;;;;;;5072505;28;20068;-77
2022/10/06 08:23:50;;;;;;;4.60;4.20;;;;;;;;;;5054159;28;20486;-77
2022/10/06 08:26:18;;;;;;;4.80;4.10;;;;;;;;;;5072372;28;20094;-76
2022/10/06 08:28:47;;;;;;;4.20;3.80;;;;;;;;;;5037202;28;20204;-77
2022/10/06 08:31:15;;;;;;;4.30;3.90;;;;;;;;;;5034503;28;20048;-77
2022/10/06 08:33:43;;;;;;;5.13;3.72;;;;;;;;;;5051372;28;20052;-77
2022/10/06 08:36:15;;;;;;;4.78;3.35;;;;;;;;;;5033856;28;20519;-77
2022/10/06 08:38:45;;;;;;;3.38;2.97;;;;;;;;;;5033720;28;20095;-78
2022/10/06 08:41:20;;;;;;;5.43;3.42;;;;;;;;;;5051706;28;20053;-78
2022/10/06 08:43:52;;;;;;;7.97;3.45;;;;;;;;;;5051818;28;20163;-77
2022/10/06 08:46:21;;;;;;;8.95;3.90;;;;;;;;;;5051273;28;20044;-78
2022/10/06 08:48:51;;;;;;;17.73;4.50;;;;;;;;;;5050708;28;20522;-78
2022/10/06 08:51:34;;;;;;;10.10;3.65;;;;;;;;;;5034021;28;20558;-78
2022/10/06 08:54:07;;;;;;;4.43;3.55;;;;;;;;;;5051764;28;20075;-77
2022/10/06 08:56:56;;;;;;;3.53;3.20;;;;;;;;;;5033845;28;20091;-78
2022/10/06 08:59:24;;;;;;;4.90;3.80;;;;;;;;;;5033617;28;20037;-78
2022/10/06 09:01:53;;;;;;;3.67;3.38;;;;;;;;;;5052219;28;20065;-77
2022/10/06 09:04:27;;;;;;;5.72;3.63;;;;;;;;;;5050877;28;20041;-78
2022/10/06 09:07:02;;;;;;;4.00;3.63;;;;;;;;;;5050850;28;20041;-77
2022/10/06 09:09:45;;;;;;;4.28;3.97;;;;;;;;;;5033783;28;20049;-78
2022/10/06 09:12:23;;;;;;;5.13;4.00;;;;;;;;;;5051267;28;20049;-78
2022/10/06 09:14:53;;;;;;;3.92;3.55;;;;;;;;;;5050303;28;20056;-77
2022/10/06 09:17:25;;;;;;;4.60;3.70;;;;;;;;;;5051054;28;20529;-77
2022/10/06 09:19:55;;;;;;;6.97;3.75;;;;;;;;;;5051269;28;20045;-77
2022/10/06 09:22:23;;;;;;;3.97;3.58;;;;;;;;;;5050862;28;20041;-78
2022/10/06 09:24:56;;;;;;;3.88;3.58;;;;;;;;;;5050621;28;20041;-77
2022/10/06 09:27:28;;;;;;;3.90;3.55;;;;;;;;;;5050575;28;20045;-78
2022/10/06 09:29:55;;;;;;;3.78;3.50;;;;;;;;;;4997163;28;20069;-77
2022/10/06 09:32:24;;;;;;;3.97;3.65;;;;;;;;;;5021239;28;20075;-77
2022/10/06 09:34:58;;;;;;;4.25;3.60;;;;;;;;;;5033222;28;20075;-78
2022/10/06 09:37:26;;;;;;;3.83;3.53;;;;;;;;;;5033503;28;20075;-77
2022/10/06 09:39:54;;;;;;;9.27;4.30;;;;;;;;;;5032975;28;20048;-77
2022/10/06 09:42:23;;;;;;;9.85;5.95;;;;;;;;;;5050954;28;20095;-77
2022/10/06 09:44:51;;;;;;;8.18;3.70;;;;;;;;;;5040485;28;20467;-77
2022/10/06 09:47:38;;;;;;;4.13;3.75;;;;;;;;;;5034876;28;20514;-78
2022/10/06 09:50:13;;;;;;;4.22;3.80;;;;;;;;;;5050342;28;20553;-77
2022/10/06 09:53:00;;;;;;;4.90;3.40;;;;;;;;;;5049254;28;20492;-77
2022/10/06 09:55:29;;;;;;;7.68;3.95;;;;;;;;;;5032042;28;20045;-78
2022/10/06 09:57:57;;;;;;;4.22;3.70;;;;;;;;;;5032489;28;20049;-78
2022/10/06 10:00:28;;;;;;;5.10;3.42;;;;;;;;;;5050400;28;20136;-78
2022/10/06 10:02:56;;;;;;;;;;;;;;;;;;5050955;28;20037;-78
2022/10/06 10:05:24;;;;;;;4.10;3.70;;;;;;;;;;5049796;28;20015;-82
2022/10/06 10:08:07;;;;;;;4.18;3.45;;;;;;;;;;5050154;28;20393;-78
2022/10/06 10:10:36;;;;;;;6.95;3.50;;;;;;;;;;5050236;28;20049;-78
2022/10/06 10:13:16;;;;;;;5.32;3.50;;;;;;;;;;5049849;28;20045;-78
2022/10/06 10:15:53;;;;;;;3.83;3.42;;;;;;;;;;5039028;28;20040;-78
2022/10/06 10:18:27;;;;;;;8.55;7.30;;;;;;;;;;5049557;28;20400;-78
2022/10/06 10:21:04;;;;;;;5.28;4.38;;;;;;;;;;5049268;28;20521;-78
2022/10/06 10:23:41;;;;;;;5.13;3.78;;;;;;;;;;5032002;28;20045;-78
2022/10/06 10:26:17;;;;;;;5.25;3.67;;;;;;;;;;5049779;28;20139;-78
2022/10/06 10:28:50;;;;;;;5.63;4.90;;;;;;;;;;5031614;28;20072;-77
2022/10/06 10:31:26;;;;;;;7.13;3.30;;;;;;;;;;5050027;28;20080;-78
2022/10/06 10:34:12;;;;;;;4.22;3.30;;;;;;;;;;5047536;28;20422;-77
2022/10/06 10:36:57;;;;;;;3.80;3.15;;;;;;;;;;5048294;28;20053;-78
2022/10/06 10:39:29;;;;;;;2.72;2.53;;;;;;;;;;5048869;28;20044;-78
2022/10/06 10:42:00;;;;;;;3.90;2.95;;;;;;;;;;5049644;28;20048;-78
2022/10/06 10:44:30;;;;;;;3.95;3.10;;;;;;;;;;5028050;28;20136;-78
2022/10/06 10:47:16;;;;;;;3.15;2.95;;;;;;;;;;5049254;28;20127;-76
2022/10/06 10:49:47;;;;;;;3.15;2.90;;;;;;;;;;5032151;28;20045;-78
2022/10/06 10:52:19;;;;;;;4.05;3.63;;;;;;;;;;5024630;28;20549;-78
2022/10/06 10:55:16;;;;;;;3.47;3.08;;;;;;;;;;5049066;28;20072;-77
2022/10/06 10:57:45;;;;;;;2.80;2.60;;;;;;;;;;5049345;28;20384;-78
2022/10/06 11:00:20;;;;;;;4.05;3.08;;;;;;;;;;5031625;28;20470;-78
2022/10/06 11:02:49;;;;;;;3.75;2.80;;;;;;;;;;5049314;28;20079;-78
2022/10/06 11:05:17;;;;;;;3.55;3.25;;;;;;;;;;5030882;28;20049;-78
2022/10/06 11:08:03;;;;;;;4.07;2.50;;;;;;;;;;5030535;28;20526;-78
2022/10/06 11:10:33;;;;;;;3.85;2.70;;;;;;;;;;5045582;28;20045;-86
2022/10/06 11:13:03;;;;;;;3.10;2.80;;;;;;;;;;5038699;28;20106;-79
2022/10/06 11:15:31;;;;;;;3.53;2.85;;;;;;;;;;5095356;22;20048;-75
2022/10/06 11:18:04;;;;;;;5.30;3.00;;;;;;;;;;5048711;28;20064;-75
2022/10/06 11:20:40;;;;;;;2.78;2.20;;;;;;;;;;5047982;28;20037;-76
2022/10/06 11:23:16;;;;;;;5.68;2.30;;;;;;;;;;5047712;28;20052;-76
2022/10/06 11:25:48;;;;;;;2.70;2.50;;;;;;;;;;5053190;28;20098;-75
2022/10/06 11:28:16;;;;;;;;;;;;;;;;;;5068860;28;20033;-76
2022/10/06 11:30:55;;;;;;;7.20;2.47;;;;;;;;;;5067936;28;19920;-77
2022/10/06 11:33:31;;;;;;;3.95;2.58;;;;;;;;;;5068406;28;20048;-75
2022/10/06 11:35:59;;;;;;;4.45;2.33;;;;;;;;;;5067661;28;20049;-75
2022/10/06 11:38:39;;;;;;;2.30;2.10;;;;;;;;;;5067738;28;20403;-76
2022/10/06 11:41:11;;;;;;;2.45;2.05;;;;;;;;;;5068718;28;20041;-76
2022/10/06 11:43:43;;;;;;;2.40;2.15;;;;;;;;;;5068879;28;20044;-75
2022/10/06 11:46:10;;;;;;;;;;;;;;;;;;5048762;28;20041;-75
2022/10/06 11:48:37;;;;;;;2.33;2.13;;;;;;;;;;5037582;28;19928;-73
2022/10/06 11:51:23;;;;;;;2.35;1.70;;;;;;;;;;5043914;28;20052;-76
2022/10/06 11:53:51;;;;;;;2.65;2.25;;;;;;;;;;5053492;28;20068;-76
2022/10/06 11:56:18;;;;;;;3.83;2.40;;;;;;;;;;5063344;28;20041;-75
2022/10/06 11:58:51;;;;;;;2.00;1.50;;;;;;;;;;5060763;28;20037;-76
2022/10/06 12:01:32;;;;;;;2.90;1.77;;;;;;;;;;5056979;28;20464;-76
2022/10/06 12:04:08;;;;;;;7.60;2.33;;;;;;;;;;5047207;28;20094;-75
2022/10/06 12:09:31;;;;;;;3.60;1.73;;;;;;;;;;5030617;28;20103;-77
2022/10/06 12:12:00;;;;;;;1.98;1.88;;;;;;;;;;5048217;28;20041;-76
2022/10/06 12:14:46;;;;;;;4.38;1.83;;;;;;;;;;5047961;28;20160;-76
2022/10/06 12:17:46;;;;;;;3.60;1.77;;;;;;;;;;5024881;28;20052;-75
2022/10/06 12:20:19;;;;;;;3.30;1.75;;;;;;;;;;5030160;28;20069;-75
2022/10/06 12:22:50;;;;;;;2.45;1.98;;;;;;;;;;5046994;28;20044;-75
2022/10/06 12:25:23;;;;;;;2.63;1.58;;;;;;;;;;5068007;28;20043;-75
2022/10/06 12:27:51;;;;;;;2.72;1.50;;;;;;;;;;5064976;28;20033;-75
2022/10/06 12:30:21;;;;;;;2.25;1.48;;;;;;;;;;5059122;28;20044;-76
2022/10/06 12:32:48;;;;;;;1.77;1.48;;;;;;;;;;5054203;28;20040;-76
2022/10/06 12:35:23;;;;;;;5.80;1.73;;;;;;;;;;5050511;28;20048;-75
2022/10/06 12:37:52;;;;;;;3.13;1.73;;;;;;;;;;5041824;28;20045;-77
2022/10/06 12:40:40;;;;;;;3.35;1.77;;;;;;;;;;5034573;28;20041;-75
2022/10/06 12:43:10;;;;;;;2.97;1.42;;;;;;;;;;5038633;28;20521;-75
2022/10/06 12:45:42;;;;;;;5.80;1.80;;;;;;;;;;5048899;28;20082;-74
2022/10/06 12:48:19;;;;;;;4.13;2.00;;;;;;;;;;5058692;28;20128;-75
2022/10/06 12:50:48;;;;;;;3.05;1.73;;;;;;;;;;5055870;28;20071;-75
2022/10/06 12:53:19;;;;;;;3.22;2.75;;;;;;;;;;5063613;28;20068;-75
2022/10/06 12:55:51;;;;;;;3.95;1.60;;;;;;;;;;5049431;28;20036;-75
2022/10/06 12:58:20;;;;;;;2.53;1.00;;;;;;;;;;5067914;28;20048;-76
2022/10/06 13:00:50;;;;;;;1.80;1.40;;;;;;;;;;5038148;28;20045;-75
2022/10/06 13:03:24;;;;;;;7.05;2.30;;;;;;;;;;5051624;28;20124;-75
2022/10/06 13:05:56;;;;;;;4.80;1.50;;;;;;;;;;5059002;28;20634;-76
2022/10/06 13:08:23;;;;;;;;;;;;;;;;;;5054369;28;20150;-75
2022/10/06 13:10:50;;;;;;;3.72;1.50;;;;;;;;;;5055637;28;19920;-76
2022/10/06 13:13:23;;;;;;;5.38;1.50;;;;;;;;;;5068083;28;20043;-75
2022/10/06 13:15:54;;;;;;;2.58;1.65;;;;;;;;;;5051973;28;20079;-75
2022/10/06 13:18:23;;;;;;;4.60;1.70;;;;;;;;;;5062713;28;20527;-82
2022/10/06 13:20:50;;;;;;;3.03;1.60;;;;;;;;;;5051677;28;20094;-74
2022/10/06 13:23:21;;;;;;;2.70;1.40;;;;;;;;;;5061462;28;20473;-75
2022/10/06 13:25:58;;;;;;;2.03;1.47;;;;;;;;;;5033416;28;20041;-75
2022/10/06 13:28:30;;;;;;;3.08;1.50;;;;;;;;;;5064110;28;20040;-75
2022/10/06 13:31:02;;;;;;;4.70;1.45;;;;;;;;;;5071065;28;20076;-76
2022/10/06 13:33:34;;;;;;;3.40;1.63;;;;;;;;;;5071135;28;20125;-76
2022/10/06 13:36:01;;;;;;;3.13;1.40;;;;;;;;;;5052736;28;20048;-76
2022/10/06 13:38:33;;;;;;;2.50;1.60;;;;;;;;;;5066223;28;20496;-76
2022/10/06 13:41:02;;;;;;;1.45;1.20;;;;;;;;;;5045528;28;20127;-76
2022/10/06 13:43:29;;;;;;;2.92;1.40;;;;;;;;;;5070716;28;20506;-76
2022/10/06 13:45:58;;;;;;;2.22;1.30;;;;;;;;;;5049146;28;20095;-75
2022/10/06 13:48:27;;;;;;;4.50;1.40;;;;;;;;;;5065579;28;20033;-76
2022/10/06 13:50:54;;;;;;;1.77;1.40;;;;;;;;;;5043624;28;20072;-76
2022/10/06 13:53:24;;;;;;;2.70;1.50;;;;;;;;;;5070406;28;20102;-76
2022/10/06 13:55:52;;;;;;;3.25;1.70;;;;;;;;;;5062580;28;20045;-76
2022/10/06 13:58:23;;;;;;;5.18;1.52;;;;;;;;;;5049881;28;20512;-75
2022/10/06 14:00:50;;;;;;;5.82;1.70;;;;;;;;;;5021453;28;20048;-79
2022/10/06 14:03:20;;;;;;;4.20;1.67;;;;;;;;;;5034979;28;20040;-75
2022/10/06 14:05:48;;;;;;;2.28;1.30;;;;;;;;;;5067761;28;20028;-75
2022/10/06 14:08:18;;;;;;;1.40;1.30;;;;;;;;;;5052095;28;20489;-75
2022/10/06 14:10:48;;;;;;;6.30;2.00;;;;;;;;;;5051383;28;20535;-76
2022/10/06 14:13:20;;;;;;;8.07;3.08;;;;;;;;;;5069907;28;20049;-75
2022/10/06 14:15:48;;;;;;;4.28;1.90;;;;;;;;;;5050772;28;20052;-75
2022/10/06 14:18:36;;;;;;;2.72;1.33;;;;;;;;;;5035404;28;20052;-75
2022/10/06 14:21:27;;;;;;;3.78;1.73;;;;;;;;;;5056629;28;20496;-82
2022/10/06 14:23:55;;;;;;;;;;;;;;;;;;5033000;28;20482;-75
2022/10/06 14:26:27;;;;;;;6.70;1.90;;;;;;;;;;5031496;28;20009;-76
2022/10/06 14:28:54;;;;;;;6.72;1.80;;;;;;;;;;5049565;28;20048;-76
2022/10/06 14:31:23;;;;;;;2.22;1.60;;;;;;;;;;5048326;28;20513;-75
2022/10/06 14:33:51;;;;;;;4.10;1.70;;;;;;;;;;5054035;28;20451;-76
2022/10/06 14:36:21;;;;;;;3.58;1.98;;;;;;;;;;5051291;28;20433;-75
2022/10/06 14:38:49;;;;;;;3.47;1.90;;;;;;;;;;5069795;28;20041;-75
2022/10/06 14:41:18;;;;;;;4.03;2.70;;;;;;;;;;5069742;28;20064;-76
2022/10/06 14:43:46;;;;;;;6.15;3.30;;;;;;;;;;5052072;28;20123;-75
2022/10/06 14:46:14;;;;;;;5.78;2.80;;;;;;;;;;5068677;28;20045;-74
2022/10/06 14:48:41;;;;;;;3.50;2.65;;;;;;;;;;5051068;28;20045;-75
2022/10/06 14:51:09;;;;;;;2.78;2.50;;;;;;;;;;5051772;28;20131;-76
2022/10/06 14:53:40;;;;;;;3.22;2.17;;;;;;;;;;5069443;28;20048;-76
2022/10/06 14:56:09;;;;;;;4.15;1.70;;;;;;;;;;5050998;28;20052;-76
2022/10/06 14:58:37;;;;;;;4.45;1.65;;;;;;;;;;5069472;28;20072;-76
2022/10/06 15:01:08;;;;;;;3.13;1.92;;;;;;;;;;5069553;28;20289;-81
2022/10/06 15:03:35;;;;;;;4.03;1.92;;;;;;;;;;5028590;28;20556;-76
2022/10/06 15:08:51;;;;;;;3.25;2.95;;;;;;;;;;5069187;28;20124;-76
2022/10/06 15:11:19;;;;;;;2.75;2.55;;;;;;;;;;5068614;28;20454;-76
2022/10/06 15:13:47;;;;;;;3.55;2.40;;;;;;;;;;5069365;28;20049;-72
2022/10/06 15:16:15;;;;;;;3.47;2.00;;;;;;;;;;5050319;28;20151;-75
2022/10/06 15:18:42;;;;;;;6.15;2.10;;;;;;;;;;5065125;28;20602;-75
2022/10/06 15:21:10;;;;;;;2.95;1.77;;;;;;;;;;5066795;28;20048;-74
2022/10/06 15:23:38;;;;;;;2.67;1.95;;;;;;;;;;5068225;28;20102;-75